Time;durP1;ratioP1;P1;durP2;ratioP2;P2;SDS_P1;SDS_P2;PMS_P1;PMS_P2;Temp;Humidity;BMP_temperature;BMP_pressure;BME280_temperature;BME280_humidity;BME280_pressure;Samples;Min_cycle;Max_cycle;Signal;HPM_P1;HPM_P2
2022/03/28 00:00:39;;;;;;;1.50;0.80;;;20.90;45.00;;;;;;5090032;27;43568;-59
2022/03/28 00:03:07;;;;;;;2.05;0.90;;;20.90;45.00;;;;;;5086414;27;43545;-60
2022/03/28 00:05:34;;;;;;;1.13;0.90;;;20.90;45.00;;;;;;5040378;27;43495;-60
2022/03/28 00:08:02;;;;;;;1.25;0.95;;;20.90;45.10;;;;;;5069729;27;43953;-60
2022/03/28 00:10:31;;;;;;;1.10;1.00;;;20.80;45.10;;;;;;5102561;27;43456;-59
2022/03/28 00:12:58;;;;;;;1.23;0.80;;;20.80;45.00;;;;;;5040656;28;43413;-59
2022/03/28 00:15:26;;;;;;;1.35;1.05;;;20.80;45.00;;;;;;5067592;27;43577;-60
2022/03/28 00:17:53;;;;;;;0.90;0.70;;;20.80;45.00;;;;;;5068527;27;44038;-59
2022/03/28 00:20:21;;;;;;;1.15;1.05;;;20.80;45.00;;;;;;5116175;27;44003;-60
2022/03/28 00:22:49;;;;;;;0.65;0.65;;;20.80;45.10;;;;;;5070380;27;43422;-60
2022/03/28 00:25:16;;;;;;;1.08;0.80;;;20.80;45.10;;;;;;5046330;27;43651;-60
2022/03/28 00:27:44;;;;;;;1.02;1.02;;;20.80;45.10;;;;;;5044117;27;44949;-60
2022/03/28 00:30:12;;;;;;;1.17;1.05;;;20.80;45.20;;;;;;5080405;27;43513;-59
2022/03/28 00:32:40;;;;;;;1.38;0.90;;;20.70;45.20;;;;;;5065025;27;43388;-60
2022/03/28 00:35:08;;;;;;;1.00;0.70;;;20.70;45.20;;;;;;5048484;27;44069;-60
2022/03/28 00:37:37;;;;;;;1.90;0.98;;;20.70;45.20;;;;;;5125858;27;44053;-60
2022/03/28 00:40:09;;;;;;;0.82;0.75;;;20.70;45.20;;;;;;5089544;27;43378;-60
2022/03/28 00:42:37;;;;;;;1.30;1.00;;;20.70;45.20;;;;;;5056007;27;44005;-60
2022/03/28 00:45:06;;;;;;;1.25;1.08;;;20.60;45.20;;;;;;5052175;27;43588;-59
2022/03/28 00:47:34;;;;;;;0.98;0.80;;;20.60;45.20;;;;;;5116992;27;43782;-60
2022/03/28 00:50:02;;;;;;;1.08;0.90;;;20.60;45.20;;;;;;5074283;27;43473;-60
2022/03/28 00:52:30;;;;;;;1.13;1.00;;;20.60;45.90;;;;;;5053206;27;43394;-60
2022/03/28 00:54:58;;;;;;;1.77;1.10;;;20.60;45.20;;;;;;5055220;27;43604;-59
2022/03/28 00:57:26;;;;;;;1.10;0.80;;;20.60;45.30;;;;;;5112565;27;44090;-59
2022/03/28 00:59:53;;;;;;;1.10;0.90;;;20.50;45.20;;;;;;5062854;27;43443;-60
2022/03/28 01:02:21;;;;;;;0.75;0.75;;;20.60;45.20;;;;;;5036380;27;43504;-60
2022/03/28 01:04:50;;;;;;;0.73;0.73;;;20.60;45.10;;;;;;5059361;27;43517;-60
2022/03/28 01:07:17;;;;;;;1.50;0.90;;;20.60;45.20;;;;;;5068024;27;43996;-60
2022/03/28 01:09:45;;;;;;;0.70;0.70;;;20.50;45.20;;;;;;5057718;27;43446;-60
2022/03/28 01:12:12;;;;;;;1.20;0.82;;;20.50;45.20;;;;;;5042678;27;43628;-61
2022/03/28 01:14:41;;;;;;;1.10;1.00;;;20.60;45.20;;;;;;5114065;27;43634;-60
2022/03/28 01:19:56;;;;;;;0.70;0.70;;;20.50;45.20;;;;;;5050926;27;43974;-59
2022/03/28 01:22:23;;;;;;;1.00;0.90;;;20.50;45.30;;;;;;5038808;27;43495;-60
2022/03/28 01:24:51;;;;;;;0.93;0.80;;;20.50;45.20;;;;;;5069734;27;43539;-60
2022/03/28 01:27:21;;;;;;;0.82;0.80;;;20.50;45.30;;;;;;5066921;27;43781;-60
2022/03/28 01:29:49;;;;;;;0.90;0.90;;;20.40;45.30;;;;;;5046688;27;43495;-60
2022/03/28 01:32:16;;;;;;;0.95;0.75;;;20.40;45.30;;;;;;5050233;27;43447;-60
2022/03/28 01:34:44;;;;;;;0.88;0.88;;;20.40;45.30;;;;;;5099785;27;43557;-59
2022/03/28 01:37:12;;;;;;;0.90;0.90;;;20.40;45.30;;;;;;5069062;27;44071;-59
2022/03/28 01:39:39;;;;;;;0.73;0.73;;;20.40;45.30;;;;;;5040661;27;43439;-60
2022/03/28 01:42:07;;;;;;;0.90;0.90;;;20.40;45.30;;;;;;5113642;27;43445;-60
2022/03/28 01:44:35;;;;;;;1.02;0.80;;;20.40;45.30;;;;;;5103300;27;43533;-60
2022/03/28 01:47:02;;;;;;;0.70;0.70;;;20.40;45.30;;;;;;5058299;27;44974;-60
2022/03/28 01:49:31;;;;;;;1.02;0.90;;;20.40;45.30;;;;;;5051464;27;43716;-60
2022/03/28 01:51:58;;;;;;;1.65;0.93;;;20.40;45.30;;;;;;5089607;27;43455;-60
2022/03/28 01:54:26;;;;;;;1.95;0.95;;;20.40;45.20;;;;;;5094877;27;43635;-60
2022/03/28 01:56:53;;;;;;;0.80;0.80;;;20.40;45.30;;;;;;5052855;27;44158;-60
2022/03/28 01:59:21;;;;;;;1.17;0.98;;;20.40;45.30;;;;;;5110732;27;43553;-60
2022/03/28 02:01:48;;;;;;;1.27;1.00;;;20.30;45.20;;;;;;5111769;27;43392;-60
2022/03/28 02:04:16;;;;;;;0.70;0.65;;;20.30;45.20;;;;;;5088894;27;43575;-60
2022/03/28 02:06:43;;;;;;;1.10;0.90;;;20.30;45.90;;;;;;5050564;27;44022;-61
2022/03/28 02:09:11;;;;;;;0.90;0.60;;;20.30;45.30;;;;;;5108227;27;43974;-60
2022/03/28 02:11:38;;;;;;;0.80;0.80;;;20.30;45.20;;;;;;5092253;27;43475;-59
2022/03/28 02:14:06;;;;;;;1.00;0.90;;;20.30;45.20;;;;;;5083147;27;43627;-60
2022/03/28 02:16:33;;;;;;;1.52;1.15;;;20.30;45.30;;;;;;5050462;27;44660;-59
2022/03/28 02:19:01;;;;;;;0.82;0.82;;;20.20;45.20;;;;;;5101817;27;43479;-59
2022/03/28 02:21:28;;;;;;;0.70;0.70;;;20.30;45.30;;;;;;5103037;27;43392;-60
2022/03/28 02:23:57;;;;;;;1.70;0.93;;;20.30;45.20;;;;;;5071890;27;43653;-59
2022/03/28 02:26:25;;;;;;;0.70;0.70;;;20.30;46.00;;;;;;5040968;27;44049;-60
2022/03/28 02:28:52;;;;;;;1.02;0.93;;;20.20;45.20;;;;;;5096597;27;43998;-59
2022/03/28 02:31:20;;;;;;;0.70;0.70;;;20.20;45.20;;;;;;5061399;27;43425;-61
2022/03/28 02:33:48;;;;;;;1.48;0.73;;;20.20;45.20;;;;;;5050376;27;43446;-60
2022/03/28 02:36:15;;;;;;;0.80;0.80;;;20.20;45.20;;;;;;5067183;27;46151;-60
2022/03/28 02:38:43;;;;;;;0.88;0.80;;;20.20;45.30;;;;;;5086341;27;43520;-59
2022/03/28 02:41:10;;;;;;;0.82;0.70;;;20.20;45.30;;;;;;5093939;27;44041;-60
2022/03/28 02:43:38;;;;;;;0.85;0.65;;;20.20;45.20;;;;;;5044337;27;43490;-60
2022/03/28 02:46:05;;;;;;;0.70;0.70;;;20.20;45.30;;;;;;5100036;27;44963;-61
2022/03/28 02:48:33;;;;;;;0.90;0.70;;;20.20;45.20;;;;;;5081246;27;43449;-59
2022/03/28 02:51:03;;;;;;;0.60;0.60;;;20.20;45.30;;;;;;5085483;27;43457;-60
2022/03/28 02:53:31;;;;;;;0.88;0.77;;;20.20;45.20;;;;;;5079578;27;43627;-59
2022/03/28 02:55:59;;;;;;;0.73;0.73;;;20.10;45.10;;;;;;5122355;27;44984;-60
2022/03/28 02:58:27;;;;;;;0.70;0.70;;;20.20;45.20;;;;;;5107196;27;43420;-60
2022/03/28 03:00:55;;;;;;;0.60;0.60;;;20.10;45.20;;;;;;5073116;27;43468;-59
2022/03/28 03:03:22;;;;;;;0.40;0.40;;;20.10;45.20;;;;;;5072419;27;43654;-60
2022/03/28 03:05:52;;;;;;;1.05;0.90;;;20.10;45.20;;;;;;5112719;27;43615;-60
2022/03/28 03:08:19;;;;;;;0.65;0.65;;;20.10;45.10;;;;;;5073068;27;43562;-60
2022/03/28 03:10:48;;;;;;;0.60;0.60;;;20.10;45.20;;;;;;5050263;27;43494;-61
2022/03/28 03:13:15;;;;;;;0.52;0.52;;;20.10;45.20;;;;;;5039772;27;43465;-60
2022/03/28 03:15:46;;;;;;;0.73;0.50;;;20.10;45.20;;;;;;5038171;27;43733;-60
2022/03/28 03:18:13;;;;;;;0.60;0.60;;;20.10;45.20;;;;;;5070244;27;43500;-60
2022/03/28 03:20:41;;;;;;;0.60;0.60;;;20.00;45.20;;;;;;5053502;27;43458;-59
2022/03/28 03:23:09;;;;;;;0.40;0.40;;;20.00;45.20;;;;;;5041183;28;43546;-60
2022/03/28 03:25:36;;;;;;;0.73;0.50;;;20.00;45.10;;;;;;5081708;27;44078;-60
2022/03/28 03:28:04;;;;;;;0.60;0.60;;;20.00;45.10;;;;;;5071508;27;43956;-60
2022/03/28 03:30:31;;;;;;;0.65;0.65;;;20.00;45.00;;;;;;5070748;27;43478;-59
2022/03/28 03:32:59;;;;;;;0.60;0.60;;;20.00;45.10;;;;;;5122781;27;43625;-60
2022/03/28 03:35:26;;;;;;;0.40;0.40;;;20.00;45.10;;;;;;5075453;27;44303;-59
2022/03/28 03:37:54;;;;;;;0.50;0.50;;;20.00;45.20;;;;;;5068980;27;43981;-60
2022/03/28 03:40:21;;;;;;;0.60;0.60;;;20.00;45.20;;;;;;5065669;27;43500;-61
2022/03/28 03:42:49;;;;;;;0.50;0.50;;;20.00;45.20;;;;;;5120307;27;43525;-60
2022/03/28 03:45:17;;;;;;;0.55;0.50;;;19.90;45.10;;;;;;5072178;27;44019;-60
2022/03/28 03:47:45;;;;;;;0.57;0.57;;;20.00;45.20;;;;;;5044820;27;43503;-60
2022/03/28 03:50:12;;;;;;;0.47;0.47;;;19.90;45.10;;;;;;5065740;27;43559;-60
2022/03/28 03:52:40;;;;;;;0.65;0.50;;;19.90;45.00;;;;;;5092446;27;43520;-60
2022/03/28 03:55:08;;;;;;;0.40;0.40;;;19.90;45.10;;;;;;5061216;27;43996;-59
2022/03/28 03:57:36;;;;;;;0.40;0.40;;;19.90;45.10;;;;;;5054116;27;43950;-60
2022/03/28 04:00:05;;;;;;;0.45;0.45;;;19.90;45.10;;;;;;5067688;27;43449;-60
2022/03/28 04:02:39;;;;;;;0.30;0.30;;;19.90;45.10;;;;;;5105189;27;43483;-60
2022/03/28 04:05:08;;;;;;;0.77;0.50;;;19.90;45.00;;;;;;5064142;27;44875;-60
2022/03/28 04:07:35;;;;;;;0.40;0.40;;;19.90;45.10;;;;;;5059062;27;43466;-60
2022/03/28 04:10:06;;;;;;;0.68;0.50;;;19.90;45.10;;;;;;5122053;27;43529;-59
2022/03/28 04:12:33;;;;;;;0.38;0.30;;;19.90;45.70;;;;;;5078613;27;43553;-60
2022/03/28 04:15:02;;;;;;;0.30;0.30;;;19.90;45.00;;;;;;5041496;27;44709;-60
2022/03/28 04:17:29;;;;;;;0.50;0.50;;;19.90;45.00;;;;;;5057776;27;43492;-60
2022/03/28 04:19:58;;;;;;;0.40;0.30;;;19.90;45.10;;;;;;5118202;27;43570;-59
2022/03/28 04:22:26;;;;;;;0.43;0.43;;;19.90;45.10;;;;;;5074054;27;43536;-60
2022/03/28 04:24:53;;;;;;;0.30;0.30;;;19.80;45.00;;;;;;5052336;27;44965;-60
2022/03/28 04:27:21;;;;;;;0.40;0.40;;;19.80;45.00;;;;;;5123900;27;43480;-60
2022/03/28 04:29:48;;;;;;;0.50;0.50;;;19.80;45.00;;;;;;5076641;27;43407;-59
2022/03/28 04:32:16;;;;;;;0.47;0.43;;;19.80;45.10;;;;;;5056357;27;43597;-60
2022/03/28 04:34:44;;;;;;;0.30;0.30;;;19.80;45.10;;;;;;5035928;27;44980;-60
2022/03/28 04:37:11;;;;;;;0.32;0.32;;;19.80;45.00;;;;;;5122319;27;44086;-60
2022/03/28 04:39:39;;;;;;;0.30;0.30;;;19.80;45.00;;;;;;5107536;27;43530;-60
2022/03/28 04:42:07;;;;;;;0.38;0.38;;;19.80;45.10;;;;;;5065693;27;43514;-60
2022/03/28 04:44:35;;;;;;;0.40;0.40;;;19.80;45.10;;;;;;5035532;27;44155;-59
2022/03/28 04:47:03;;;;;;;0.40;0.40;;;19.80;45.10;;;;;;5102590;27;43477;-60
2022/03/28 04:49:30;;;;;;;0.35;0.30;;;19.70;45.00;;;;;;5081502;27;43466;-60
2022/03/28 04:51:58;;;;;;;0.30;0.30;;;19.80;45.10;;;;;;5055152;27;43883;-60
2022/03/28 04:54:25;;;;;;;0.40;0.40;;;19.70;45.00;;;;;;5037475;27;44968;-61
2022/03/28 04:56:53;;;;;;;0.40;0.40;;;19.70;45.10;;;;;;5111853;27;43494;-60
2022/03/28 04:59:20;;;;;;;0.35;0.35;;;19.70;45.00;;;;;;5090551;27;43449;-61
2022/03/28 05:01:48;;;;;;;0.43;0.43;;;19.70;45.10;;;;;;5042753;27;43539;-60
2022/03/28 05:04:15;;;;;;;0.47;0.47;;;19.70;45.10;;;;;;5126137;27;44074;-60
2022/03/28 05:06:43;;;;;;;0.30;0.30;;;19.70;45.20;;;;;;5059083;27;44318;-60
2022/03/28 05:09:10;;;;;;;0.73;0.52;;;19.60;45.80;;;;;;5078070;27;43455;-60
2022/03/28 05:11:37;;;;;;;0.50;0.50;;;19.60;45.20;;;;;;5036483;27;43580;-61
2022/03/28 05:14:05;;;;;;;0.40;0.40;;;19.60;45.20;;;;;;5034504;27;43962;-60
2022/03/28 05:16:33;;;;;;;0.40;0.40;;;19.60;45.10;;;;;;5101293;27;43384;-60
2022/03/28 05:19:01;;;;;;;0.80;0.40;;;19.60;45.10;;;;;;5068579;27;43409;-60
2022/03/28 05:21:28;;;;;;;0.43;0.30;;;19.70;45.10;;;;;;5042256;27;43496;-61
2022/03/28 05:23:56;;;;;;;0.68;0.40;;;19.60;45.10;;;;;;5040116;27;43796;-60
2022/03/28 05:26:23;;;;;;;0.80;0.40;;;19.60;45.20;;;;;;5099095;27;43428;-60
2022/03/28 05:28:51;;;;;;;0.30;0.30;;;19.60;45.20;;;;;;5058637;27;43368;-61
2022/03/28 05:31:18;;;;;;;0.52;0.40;;;19.60;45.20;;;;;;5100925;27;43489;-60
2022/03/28 05:33:46;;;;;;;1.15;0.63;;;19.60;45.20;;;;;;5084672;27;45486;-60
2022/03/28 05:36:14;;;;;;;0.40;0.40;;;19.60;45.20;;;;;;5096826;27;43521;-61
2022/03/28 05:38:42;;;;;;;0.57;0.57;;;19.60;45.20;;;;;;5052903;27;43527;-61
2022/03/28 05:41:10;;;;;;;0.50;0.50;;;19.60;45.20;;;;;;5099618;27;43495;-61
2022/03/28 05:43:38;;;;;;;0.47;0.47;;;19.60;45.30;;;;;;5089967;27;44723;-60
2022/03/28 05:46:06;;;;;;;0.50;0.50;;;19.60;45.30;;;;;;5093430;27;43662;-60
2022/03/28 05:48:33;;;;;;;0.60;0.57;;;19.50;45.30;;;;;;5036941;27;43472;-60
2022/03/28 05:51:02;;;;;;;0.47;0.40;;;19.50;45.30;;;;;;5079226;27;43446;-60
2022/03/28 05:53:29;;;;;;;0.60;0.60;;;19.50;45.40;;;;;;5082338;27;44954;-61
2022/03/28 05:55:57;;;;;;;0.50;0.50;;;19.50;45.30;;;;;;5084688;27;43639;-61
2022/03/28 05:58:24;;;;;;;0.60;0.60;;;19.50;45.40;;;;;;5040381;27;43416;-60
2022/03/28 06:00:52;;;;;;;0.57;0.57;;;19.50;45.40;;;;;;5097647;27;43446;-60
2022/03/28 06:03:19;;;;;;;0.60;0.60;;;19.50;45.40;;;;;;5082724;27;44771;-60
2022/03/28 06:06:03;;;;;;;0.60;0.60;;;19.50;45.40;;;;;;5046145;27;44365;-60
2022/03/28 06:08:31;;;;;;;0.70;0.70;;;19.50;45.40;;;;;;5093353;27;43765;-61
2022/03/28 06:10:59;;;;;;;0.95;0.60;;;19.50;45.40;;;;;;5044569;27;43465;-60
2022/03/28 06:13:26;;;;;;;0.40;0.40;;;19.50;45.40;;;;;;5054845;27;44726;-60
2022/03/28 06:15:54;;;;;;;1.30;0.52;;;19.50;45.40;;;;;;5041874;27;43438;-61
2022/03/28 06:18:22;;;;;;;0.52;0.52;;;19.40;45.40;;;;;;5094819;27;43395;-60
2022/03/28 06:20:49;;;;;;;0.60;0.60;;;19.50;45.40;;;;;;5088752;27;43531;-60
2022/03/28 06:23:17;;;;;;;0.60;0.60;;;19.50;45.40;;;;;;5085045;27;44057;-60
2022/03/28 06:25:44;;;;;;;0.45;0.45;;;19.50;45.30;;;;;;5076761;27;43405;-61
2022/03/28 06:28:12;;;;;;;0.70;0.70;;;19.50;45.20;;;;;;5129984;27;43488;-61
2022/03/28 06:30:40;;;;;;;1.33;0.70;;;19.50;45.30;;;;;;5077329;27;43504;-61
2022/03/28 06:33:07;;;;;;;0.70;0.70;;;19.50;45.30;;;;;;5040444;27;44699;-60
2022/03/28 06:35:35;;;;;;;0.93;0.70;;;19.50;45.20;;;;;;5071922;27;43480;-60
2022/03/28 06:38:02;;;;;;;1.45;0.63;;;19.50;45.30;;;;;;5126757;27;43505;-60
2022/03/28 06:40:29;;;;;;;0.65;0.65;;;19.50;45.30;;;;;;5076882;27;43453;-60
2022/03/28 06:42:57;;;;;;;4.35;3.45;;;19.50;45.40;;;;;;5071273;27;43813;-61
2022/03/28 06:45:25;;;;;;;3.72;2.40;;;19.50;45.50;;;;;;5071752;27;43701;-59
2022/03/28 06:47:53;;;;;;;5.40;2.20;;;19.50;45.50;;;;;;5118857;27;43496;-61
2022/03/28 06:50:23;;;;;;;6.30;2.03;;;19.50;45.50;;;;;;5072070;27;43497;-60
2022/03/28 06:52:52;;;;;;;1.95;1.80;;;19.50;45.50;;;;;;5061807;27;44366;-60
2022/03/28 06:55:20;;;;;;;2.55;1.70;;;19.60;45.50;;;;;;5049372;27;43496;-60
2022/03/28 06:57:48;;;;;;;2.65;1.92;;;19.60;45.40;;;;;;5036834;27;43425;-60
2022/03/28 07:00:15;;;;;;;2.15;1.90;;;19.80;45.50;;;;;;5096490;27;43513;-61
2022/03/28 07:02:43;;;;;;;1.75;1.65;;;19.90;45.40;;;;;;5056950;27;43979;-60
2022/03/28 07:05:11;;;;;;;2.42;1.90;;;20.00;45.20;;;;;;5033435;27;43579;-60
2022/03/28 07:07:43;;;;;;;1.88;1.75;;;20.10;45.10;;;;;;5038011;27;43531;-60
2022/03/28 07:10:11;;;;;;;1.75;1.50;;;20.20;45.10;;;;;;5037346;27;43466;-61
2022/03/28 07:12:40;;;;;;;2.58;1.73;;;20.30;45.00;;;;;;5036888;27;43747;-60
2022/03/28 07:15:12;;;;;;;3.63;2.00;;;20.40;44.80;;;;;;5037575;27;43559;-61
2022/03/28 07:17:58;;;;;;;3.22;1.83;;;20.50;44.90;;;;;;5047576;27;43460;-61
2022/03/28 07:20:27;;;;;;;1.90;1.70;;;20.60;44.80;;;;;;5044279;27;43493;-60
2022/03/28 07:22:56;;;;;;;2.35;1.50;;;20.70;44.60;;;;;;5046077;27;43787;-59
2022/03/28 07:25:25;;;;;;;1.70;1.60;;;20.80;44.40;;;;;;5037705;27;43520;-60
2022/03/28 07:27:52;;;;;;;2.20;1.55;;;20.90;44.40;;;;;;5031614;27;43447;-60
2022/03/28 07:30:22;;;;;;;2.25;1.60;;;21.00;44.30;;;;;;5053487;27;43502;-60
2022/03/28 07:32:52;;;;;;;1.70;1.60;;;21.10;44.30;;;;;;5044013;27;43973;-60
2022/03/28 07:35:21;;;;;;;2.28;1.60;;;21.20;44.10;;;;;;5033853;27;44101;-60
2022/03/28 07:37:50;;;;;;;1.70;1.60;;;21.20;44.40;;;;;;5043648;27;43524;-61
2022/03/28 07:40:18;;;;;;;1.63;1.52;;;21.30;44.40;;;;;;5047757;27;43669;-60
2022/03/28 07:42:46;;;;;;;2.05;1.60;;;21.40;44.40;;;;;;5038884;27;43815;-59
2022/03/28 07:45:14;;;;;;;2.35;1.60;;;21.40;44.30;;;;;;5040205;27;43426;-60
2022/03/28 07:47:42;;;;;;;15.73;2.78;;;21.50;44.30;;;;;;5052977;27;43459;-59
2022/03/28 07:50:10;;;;;;;5.30;2.05;;;21.60;44.70;;;;;;5033500;27;43521;-60
2022/03/28 07:52:39;;;;;;;2.55;1.58;;;21.60;44.30;;;;;;5066757;27;44073;-59
2022/03/28 07:55:09;;;;;;;3.33;1.60;;;21.70;44.30;;;;;;5046588;27;44129;-58
2022/03/28 07:57:37;;;;;;;1.92;1.48;;;21.70;44.30;;;;;;5038161;27;43464;-60
2022/03/28 08:00:10;;;;;;;3.10;1.70;;;21.80;44.10;;;;;;5036322;27;43470;-61
2022/03/28 08:02:51;;;;;;;3.88;1.80;;;21.90;44.20;;;;;;5087091;27;44787;-61
2022/03/28 08:05:19;;;;;;;3.28;1.70;;;22.00;44.10;;;;;;5038391;27;43923;-60
2022/03/28 08:07:52;;;;;;;2.60;1.55;;;22.10;44.30;;;;;;5067148;27;43499;-59
2022/03/28 08:10:20;;;;;;;1.83;1.52;;;22.20;44.30;;;;;;5039940;27;43492;-61
2022/03/28 08:12:50;;;;;;;1.83;1.48;;;22.40;44.00;;;;;;5049551;27;43818;-61
2022/03/28 08:15:21;;;;;;;4.38;1.83;;;22.50;43.80;;;;;;5045635;27;43524;-59
2022/03/28 08:17:49;;;;;;;3.30;1.70;;;22.70;43.70;;;;;;5034319;27;43424;-61
2022/03/28 08:20:17;;;;;;;4.07;1.80;;;22.80;43.60;;;;;;5050857;27;43579;-60
2022/03/28 08:22:49;;;;;;;8.27;1.73;;;22.90;43.30;;;;;;5045906;27;44693;-62
2022/03/28 08:25:22;;;;;;;5.32;2.05;;;23.00;43.30;;;;;;5035669;27;44280;-60
2022/03/28 08:27:50;;;;;;;3.13;1.70;;;23.10;43.00;;;;;;5040437;27;43417;-61
2022/03/28 08:30:18;;;;;;;2.20;1.70;;;23.30;43.10;;;;;;5040028;27;43885;-62
2022/03/28 08:32:47;;;;;;;3.90;2.15;;;23.40;43.70;;;;;;5034776;27;43743;-61
2022/03/28 08:35:16;;;;;;;1.98;1.65;;;23.50;43.00;;;;;;5053117;27;43527;-61
2022/03/28 08:37:43;;;;;;;2.05;1.60;;;23.60;42.40;;;;;;5033987;27;43514;-62
2022/03/28 08:40:16;;;;;;;3.25;1.70;;;23.70;42.40;;;;;;5045166;27;43575;-61
2022/03/28 08:42:45;;;;;;;2.35;1.80;;;23.80;42.40;;;;;;5101894;27;43812;-61
2022/03/28 08:45:14;;;;;;;2.28;1.67;;;23.80;42.10;;;;;;5047008;27;43713;-61
2022/03/28 08:47:44;;;;;;;2.45;1.20;;;23.80;41.90;;;;;;5036133;27;43442;-61
2022/03/28 08:50:34;;;;;;;1.45;1.40;;;23.90;41.80;;;;;;5047081;27;43388;-62
2022/03/28 08:53:02;;;;;;;5.05;1.45;;;23.90;41.80;;;;;;5037037;27;44044;-62
2022/03/28 08:55:29;;;;;;;6.63;1.98;;;23.90;41.80;;;;;;5102944;27;43468;-61
2022/03/28 08:57:56;;;;;;;2.08;1.88;;;24.00;41.40;;;;;;5045273;27;43547;-62
2022/03/28 09:00:24;;;;;;;1.65;1.50;;;24.00;41.60;;;;;;5047399;27;43607;-62
2022/03/28 09:02:56;;;;;;;2.33;1.45;;;24.00;41.40;;;;;;5039920;27;45001;-61
2022/03/28 09:05:38;;;;;;;2.05;1.48;;;24.00;41.50;;;;;;5100433;27;44137;-62
2022/03/28 09:08:08;;;;;;;1.73;1.63;;;24.10;41.50;;;;;;5032957;27;43560;-61
2022/03/28 09:10:47;;;;;;;2.83;1.58;;;24.00;41.50;;;;;;5034084;27;43557;-63
2022/03/28 09:13:19;;;;;;;2.53;1.40;;;24.00;41.60;;;;;;5100076;27;43792;-61
2022/03/28 09:15:55;;;;;;;2.92;1.42;;;24.00;41.40;;;;;;5050833;27;44059;-61
2022/03/28 09:18:28;;;;;;;3.22;1.60;;;23.90;41.40;;;;;;5045167;27;43471;-61
2022/03/28 09:21:04;;;;;;;2.03;1.60;;;23.90;41.30;;;;;;5054063;27;43466;-62
2022/03/28 09:23:38;;;;;;;2.20;1.40;;;23.90;41.70;;;;;;5046014;27;43782;-62
2022/03/28 09:26:11;;;;;;;3.42;1.58;;;23.80;41.60;;;;;;5045406;27;43514;-62
2022/03/28 09:28:48;;;;;;;2.38;1.92;;;23.80;42.40;;;;;;5084831;27;43545;-62
2022/03/28 09:31:42;;;;;;;3.53;1.80;;;23.70;41.60;;;;;;5046376;27;43565;-62
2022/03/28 09:34:14;;;;;;;3.30;1.73;;;23.70;41.60;;;;;;5052248;27;44890;-62
2022/03/28 09:36:56;;;;;;;2.65;1.63;;;23.60;41.70;;;;;;5050225;27;43456;-62
2022/03/28 09:39:27;;;;;;;3.65;1.80;;;23.60;41.70;;;;;;5049676;27;43528;-62
2022/03/28 09:42:09;;;;;;;2.42;1.52;;;23.60;41.70;;;;;;5049806;27;43510;-61
2022/03/28 09:44:44;;;;;;;2.03;1.70;;;23.60;41.80;;;;;;5039672;27;44713;-62
2022/03/28 09:47:17;;;;;;;2.35;1.67;;;23.60;41.80;;;;;;5058515;27;43725;-62
2022/03/28 09:49:45;;;;;;;1.60;1.50;;;23.60;41.80;;;;;;5049187;27;43519;-61
2022/03/28 09:52:17;;;;;;;6.80;1.80;;;23.50;41.80;;;;;;5081814;27;44147;-61
2022/03/28 09:54:59;;;;;;;2.05;1.40;;;23.50;41.70;;;;;;5039812;27;44679;-62
2022/03/28 09:57:32;;;;;;;1.52;1.42;;;23.50;41.80;;;;;;5036235;27;43983;-62
2022/03/28 10:00:08;;;;;;;2.58;1.63;;;23.50;41.90;;;;;;5050706;27;43443;-65
2022/03/28 10:02:36;;;;;;;2.30;1.48;;;23.40;42.00;;;;;;5043448;27;43439;-62
2022/03/28 10:05:06;;;;;;;2.38;1.30;;;23.40;42.10;;;;;;5039622;27;44134;-63
2022/03/28 10:07:34;;;;;;;2.08;1.50;;;23.40;42.20;;;;;;5047168;27;43427;-63
2022/03/28 10:10:03;;;;;;;2.85;1.60;;;23.40;42.20;;;;;;5093167;27;43548;-62
2022/03/28 10:12:31;;;;;;;1.67;1.30;;;23.40;42.20;;;;;;5034148;27;43541;-63
2022/03/28 10:15:01;;;;;;;1.52;1.42;;;23.30;42.20;;;;;;5067314;27;43891;-61
2022/03/28 10:17:30;;;;;;;3.13;1.60;;;23.40;42.30;;;;;;5051768;27;44289;-62
2022/03/28 10:19:59;;;;;;;2.10;1.52;;;23.30;42.30;;;;;;5048718;27;43434;-62
2022/03/28 10:22:48;;;;;;;1.85;1.58;;;23.30;42.40;;;;;;5053027;27;43490;-63
2022/03/28 10:25:21;;;;;;;3.45;1.65;;;23.30;42.40;;;;;;5044874;27;44115;-62
2022/03/28 10:27:52;;;;;;;1.95;1.63;;;23.20;42.50;;;;;;5098243;27;44133;-63
2022/03/28 10:30:30;;;;;;;2.05;1.50;;;23.20;42.50;;;;;;5078621;27;43520;-63
2022/03/28 10:33:11;;;;;;;1.98;1.50;;;23.20;42.70;;;;;;5040857;27;43512;-63
2022/03/28 10:35:38;;;;;;;2.13;1.60;;;23.10;42.60;;;;;;5037373;27;44847;-62
2022/03/28 10:38:19;;;;;;;1.92;1.70;;;23.10;42.70;;;;;;5049274;27;43478;-62
2022/03/28 10:40:55;;;;;;;2.17;1.67;;;23.00;42.70;;;;;;5094021;27;43440;-62
2022/03/28 10:43:26;;;;;;;2.55;1.73;;;23.00;43.00;;;;;;5045070;27;43475;-64
2022/03/28 10:45:56;;;;;;;2.50;1.90;;;23.00;43.20;;;;;;5086069;27;44102;-63
2022/03/28 10:48:53;;;;;;;1.92;1.75;;;22.90;43.10;;;;;;5035869;27;43400;-62
2022/03/28 10:51:26;;;;;;;1.95;1.85;;;22.90;43.10;;;;;;5041951;27;44102;-62
2022/03/28 10:53:56;;;;;;;1.80;1.70;;;22.80;43.10;;;;;;5039626;27;43573;-62
2022/03/28 10:56:36;;;;;;;2.33;1.67;;;22.80;43.20;;;;;;5033960;27;43828;-62
2022/03/28 10:59:08;;;;;;;1.67;1.58;;;22.80;43.20;;;;;;5035630;27;43383;-62
2022/03/28 11:01:37;;;;;;;2.58;1.65;;;22.80;43.20;;;;;;5040190;27;43389;-62
2022/03/28 11:04:18;;;;;;;2.42;1.88;;;22.70;43.20;;;;;;5058575;27;43572;-62
2022/03/28 11:07:03;;;;;;;2.15;1.88;;;22.70;43.20;;;;;;5037165;27;44026;-63
2022/03/28 11:09:54;;;;;;;2.00;1.80;;;22.70;43.20;;;;;;5042324;27;43507;-63
2022/03/28 11:12:34;;;;;;;1.88;1.73;;;22.70;43.40;;;;;;5114299;27;43484;-63
2022/03/28 11:15:16;;;;;;;2.13;1.98;;;22.60;43.40;;;;;;5033349;28;43546;-62
2022/03/28 11:17:57;;;;;;;1.90;1.70;;;22.60;43.40;;;;;;5061488;27;44123;-63
2022/03/28 11:20:27;;;;;;;1.88;1.75;;;22.60;43.40;;;;;;5046014;27;43372;-62
2022/03/28 11:23:10;;;;;;;1.92;1.70;;;22.50;43.40;;;;;;5043655;27;43495;-62
2022/03/28 11:25:51;;;;;;;2.28;1.80;;;22.50;43.50;;;;;;5033248;27;43521;-62
2022/03/28 11:28:22;;;;;;;1.85;1.70;;;22.50;43.50;;;;;;5039034;27;44822;-62
2022/03/28 11:31:11;;;;;;;1.90;1.80;;;22.40;43.50;;;;;;5039106;27;43582;-62
2022/03/28 11:33:44;;;;;;;1.80;1.70;;;22.40;43.50;;;;;;5094332;27;43389;-62
2022/03/28 11:36:18;;;;;;;2.33;1.90;;;22.30;43.50;;;;;;5113658;27;43497;-62
2022/03/28 11:38:47;;;;;;;2.13;1.95;;;22.30;43.60;;;;;;5036033;28;44294;-62
2022/03/28 11:41:15;;;;;;;2.10;1.90;;;22.30;43.60;;;;;;5049177;27;44098;-62
2022/03/28 11:43:47;;;;;;;2.20;1.88;;;22.20;43.70;;;;;;5042473;27;43490;-62
2022/03/28 11:46:15;;;;;;;2.10;1.83;;;22.20;43.70;;;;;;5032967;27;44098;-62
2022/03/28 11:48:58;;;;;;;2.20;2.00;;;22.20;43.70;;;;;;5043700;27;43791;-62
2022/03/28 11:51:28;;;;;;;2.28;1.83;;;22.20;43.70;;;;;;5049026;27;43460;-62
2022/03/28 11:54:11;;;;;;;2.75;2.00;;;22.10;43.70;;;;;;5049688;27;43487;-62
2022/03/28 11:59:31;;;;;;;2.28;2.03;;;22.10;43.80;;;;;;5040884;27;43989;-61
2022/03/28 12:02:06;;;;;;;2.10;1.95;;;22.00;43.90;;;;;;5038213;27;43531;-62
2022/03/28 12:04:44;;;;;;;2.03;1.83;;;22.00;43.90;;;;;;5037982;27;43466;-62
2022/03/28 12:07:12;;;;;;;2.08;1.90;;;22.00;43.90;;;;;;5035571;27;43575;-62
2022/03/28 12:09:43;;;;;;;2.13;2.03;;;22.00;43.90;;;;;;5042929;27;43833;-62
2022/03/28 12:12:11;;;;;;;2.38;2.10;;;22.00;43.90;;;;;;5044497;27;43425;-62
2022/03/28 12:14:43;;;;;;;2.00;1.90;;;21.90;43.90;;;;;;5043460;27;43495;-62
2022/03/28 12:17:10;;;;;;;2.00;1.90;;;21.90;44.00;;;;;;5036912;27;43574;-62
2022/03/28 12:19:38;;;;;;;2.30;2.10;;;21.90;44.00;;;;;;5091260;27;43898;-62
2022/03/28 12:22:15;;;;;;;3.88;1.80;;;21.90;44.00;;;;;;5065149;27;43455;-62
2022/03/28 12:24:53;;;;;;;2.40;2.10;;;21.90;44.10;;;;;;5041488;27;43482;-61
2022/03/28 12:27:23;;;;;;;2.28;1.80;;;21.80;44.00;;;;;;5060557;27;43528;-62
2022/03/28 12:29:51;;;;;;;2.65;1.67;;;21.90;44.10;;;;;;5034449;27;44061;-63
2022/03/28 12:32:20;;;;;;;2.08;1.98;;;21.80;44.10;;;;;;5044767;27;43460;-62
2022/03/28 12:34:49;;;;;;;2.40;2.10;;;21.80;44.20;;;;;;5043188;27;43526;-62
2022/03/28 12:37:17;;;;;;;2.22;2.00;;;21.80;44.30;;;;;;5047056;27;43454;-62
2022/03/28 12:39:45;;;;;;;2.25;1.83;;;21.70;44.30;;;;;;5034256;27;44982;-62
2022/03/28 12:42:26;;;;;;;2.00;1.90;;;21.80;44.40;;;;;;5049247;27;44086;-63
2022/03/28 12:44:54;;;;;;;2.20;2.10;;;21.70;44.40;;;;;;5061017;27;43568;-61
2022/03/28 12:47:29;;;;;;;2.22;2.10;;;21.70;44.40;;;;;;5044439;27;43569;-62
2022/03/28 12:49:57;;;;;;;3.30;2.10;;;21.70;44.40;;;;;;5052013;27;44014;-62
2022/03/28 12:52:31;;;;;;;2.28;2.00;;;21.70;44.40;;;;;;5036758;27;43440;-62
2022/03/28 12:54:59;;;;;;;4.75;2.10;;;21.70;44.50;;;;;;5043142;27;43472;-63
2022/03/28 12:57:30;;;;;;;2.30;2.10;;;21.70;44.60;;;;;;5047641;27;43596;-61
2022/03/28 12:59:58;;;;;;;2.20;2.10;;;21.70;44.60;;;;;;5104677;27;45905;-62
2022/03/28 13:02:26;;;;;;;5.72;2.28;;;21.60;44.70;;;;;;5086213;27;43506;-62
2022/03/28 13:04:58;;;;;;;4.97;2.75;;;21.60;45.40;;;;;;5049172;27;43530;-62
2022/03/28 13:07:28;;;;;;;4.13;2.33;;;21.60;44.80;;;;;;5036097;27;43444;-62